createdAt,value
2017-06-28T00:00:19.339Z,944.39
2017-06-28T00:01:19.333Z,944.37
2017-06-28T00:02:19.328Z,944.39
2017-06-28T00:03:19.322Z,944.42
2017-06-28T00:04:19.318Z,944.42
2017-06-28T00:05:19.312Z,944.43
2017-06-28T00:06:19.306Z,944.38
2017-06-28T00:07:19.300Z,944.37
2017-06-28T00:08:19.320Z,944.34
2017-06-28T00:09:19.288Z,944.28
2017-06-28T00:10:19.282Z,944.29
2017-06-28T00:11:19.278Z,944.28
2017-06-28T00:12:19.271Z,944.28
2017-06-28T00:13:19.268Z,944.21
2017-06-28T00:14:19.261Z,944.2
2017-06-28T00:15:19.256Z,944.18
2017-06-28T00:16:19.250Z,944.19
2017-06-28T00:17:19.245Z,944.2
2017-06-28T00:18:19.240Z,944.19
2017-06-28T00:19:19.232Z,944.21
2017-06-28T00:20:19.226Z,944.15
2017-06-28T00:21:19.222Z,944.14
2017-06-28T00:22:19.216Z,944.15
2017-06-28T00:23:19.209Z,944.07
2017-06-28T00:24:19.203Z,944.08
2017-06-28T00:25:19.219Z,944.04
2017-06-28T00:26:19.193Z,944.04
2017-06-28T00:27:19.188Z,944.05
2017-06-28T00:28:19.182Z,944.05
2017-06-28T00:29:19.177Z,944.02
2017-06-28T00:30:19.192Z,944.03
2017-06-28T00:31:19.165Z,944.03
2017-06-28T00:32:19.158Z,944.01
2017-06-28T00:33:19.155Z,943.99
2017-06-28T00:34:19.147Z,944.02
2017-06-28T00:35:19.142Z,943.97
2017-06-28T00:36:19.137Z,943.94
2017-06-28T00:37:19.131Z,943.91
2017-06-28T00:38:19.125Z,943.9
2017-06-28T00:39:19.121Z,943.87
2017-06-28T00:40:19.114Z,943.86
2017-06-28T00:41:19.108Z,943.89
2017-06-28T00:42:19.103Z,943.88
2017-06-28T00:43:19.097Z,943.89
2017-06-28T00:44:19.091Z,943.9
2017-06-28T00:45:19.085Z,943.96
2017-06-28T00:46:19.079Z,943.91
2017-06-28T00:47:19.073Z,943.91
2017-06-28T00:48:19.068Z,943.91
2017-06-28T00:49:19.063Z,943.91
2017-06-28T00:50:19.060Z,943.84
2017-06-28T00:51:19.074Z,943.83
2017-06-28T00:52:19.045Z,943.83
2017-06-28T00:53:19.038Z,943.78
2017-06-28T00:54:19.034Z,943.77
2017-06-28T00:55:19.077Z,943.8
2017-06-28T00:56:19.021Z,943.72
2017-06-28T00:57:19.017Z,943.76
2017-06-28T00:58:19.010Z,943.68
2017-06-28T00:59:19.005Z,943.63
2017-06-28T01:00:18.998Z,943.64
2017-06-28T01:01:18.993Z,943.57
2017-06-28T01:02:18.987Z,943.54
2017-06-28T01:03:18.985Z,943.57
2017-06-28T01:04:18.975Z,943.57
2017-06-28T01:05:18.971Z,943.52
2017-06-28T01:06:18.966Z,943.49
2017-06-28T01:07:18.960Z,943.46
2017-06-28T01:08:18.974Z,943.43
2017-06-28T01:09:18.947Z,943.41
2017-06-28T01:10:18.940Z,943.36
2017-06-28T01:11:18.934Z,943.34
2017-06-28T01:12:18.929Z,943.37
2017-06-28T01:13:18.923Z,943.37
2017-06-28T01:14:18.917Z,943.37
2017-06-28T01:15:18.911Z,943.37
2017-06-28T01:16:18.916Z,943.35
2017-06-28T01:17:18.901Z,943.35
2017-06-28T01:18:18.894Z,943.3
2017-06-28T01:19:18.888Z,943.28
2017-06-28T01:20:18.883Z,943.27
2017-06-28T01:21:18.878Z,943.29
2017-06-28T01:22:18.887Z,943.31
2017-06-28T01:23:18.866Z,943.29
2017-06-28T01:24:18.860Z,943.28
2017-06-28T01:25:18.853Z,943.28
2017-06-28T01:26:18.849Z,943.25
2017-06-28T01:27:18.843Z,943.22
2017-06-28T01:28:18.839Z,943.21
2017-06-28T01:29:18.831Z,943.18
2017-06-28T01:30:18.834Z,943.2
2017-06-28T01:31:18.839Z,943.19
2017-06-28T01:32:18.815Z,943.18
2017-06-28T01:33:18.808Z,943.17
2017-06-28T01:34:18.802Z,943.12
2017-06-28T01:35:18.796Z,943.12
2017-06-28T01:36:18.789Z,943.11
2017-06-28T01:37:18.786Z,943.05
2017-06-28T01:38:18.779Z,943.04
2017-06-28T01:39:18.773Z,942.99
2017-06-28T01:40:18.766Z,942.98
2017-06-28T01:41:18.770Z,942.99
2017-06-28T01:42:18.754Z,942.99
2017-06-28T01:43:18.749Z,942.96
2017-06-28T01:44:18.743Z,942.99
2017-06-28T01:45:18.739Z,942.99
2017-06-28T01:46:18.731Z,943
2017-06-28T01:47:18.733Z,943.01
2017-06-28T01:48:18.720Z,943.06
2017-06-28T01:49:18.715Z,943.06
2017-06-28T01:50:18.717Z,943.02
2017-06-28T01:51:18.722Z,943.03
2017-06-28T01:52:18.697Z,943.01
2017-06-28T01:53:18.692Z,942.96
2017-06-28T01:54:18.689Z,942.91
2017-06-28T01:55:18.681Z,942.95
2017-06-28T01:56:18.673Z,942.93
2017-06-28T01:57:18.669Z,942.96
2017-06-28T01:58:18.664Z,942.95
2017-06-28T01:59:18.654Z,942.92
2017-06-28T02:00:18.649Z,942.95
2017-06-28T02:01:18.644Z,942.91
2017-06-28T02:02:18.640Z,942.92
2017-06-28T02:03:18.634Z,942.91
2017-06-28T02:04:18.629Z,942.9
2017-06-28T02:05:18.642Z,942.88
2017-06-28T02:06:18.615Z,942.86
2017-06-28T02:07:18.609Z,942.85
2017-06-28T02:08:18.605Z,942.87
2017-06-28T02:09:18.634Z,942.87
2017-06-28T02:10:18.592Z,942.83
2017-06-28T02:11:18.586Z,942.82
2017-06-28T02:12:18.581Z,942.82
2017-06-28T02:13:18.575Z,942.79
2017-06-28T02:14:18.569Z,942.77
2017-06-28T02:15:18.564Z,942.69
2017-06-28T02:16:18.556Z,942.7
2017-06-28T02:17:18.557Z,942.76
2017-06-28T02:18:18.546Z,942.77
2017-06-28T02:19:18.539Z,942.81
2017-06-28T02:20:18.532Z,942.77
2017-06-28T02:21:18.529Z,942.78
2017-06-28T02:22:18.521Z,942.74
2017-06-28T02:23:18.515Z,942.74
2017-06-28T02:24:18.509Z,942.74
2017-06-28T02:25:18.510Z,942.69
2017-06-28T02:26:18.499Z,942.73
2017-06-28T02:27:18.504Z,942.79
2017-06-28T02:28:18.485Z,942.77
2017-06-28T02:29:18.480Z,942.75
2017-06-28T02:30:18.487Z,942.7
2017-06-28T02:31:18.468Z,942.7
2017-06-28T02:32:18.461Z,942.66
2017-06-28T02:33:18.457Z,942.58
2017-06-28T02:34:18.450Z,942.59
2017-06-28T02:35:18.445Z,942.55
2017-06-28T02:36:18.437Z,942.58
2017-06-28T02:37:18.434Z,942.56
2017-06-28T02:38:18.425Z,942.5
2017-06-28T02:39:18.421Z,942.49
2017-06-28T02:40:18.414Z,942.48
2017-06-28T02:41:18.409Z,942.49
2017-06-28T02:42:18.412Z,942.48
2017-06-28T02:43:18.396Z,942.48
2017-06-28T02:44:18.390Z,942.48
2017-06-28T02:45:18.384Z,942.46
2017-06-28T02:46:18.379Z,942.45
2017-06-28T02:47:18.372Z,942.43
2017-06-28T02:48:18.367Z,942.42
2017-06-28T02:49:18.361Z,942.37
2017-06-28T02:50:18.353Z,942.36
2017-06-28T02:51:18.349Z,942.37
2017-06-28T02:52:18.342Z,942.33
2017-06-28T02:53:18.335Z,942.31
2017-06-28T02:54:18.330Z,942.28
2017-06-28T02:55:18.324Z,942.25
2017-06-28T02:56:18.317Z,942.21
2017-06-28T02:57:18.311Z,942.21
2017-06-28T02:58:18.306Z,942.26
2017-06-28T02:59:18.301Z,942.22
2017-06-28T03:00:18.293Z,942.27
2017-06-28T03:01:18.288Z,942.23
2017-06-28T03:02:18.281Z,942.21
2017-06-28T03:03:18.277Z,942.21
2017-06-28T03:04:18.271Z,942.17
2017-06-28T03:05:18.263Z,942.18
2017-06-28T03:06:18.258Z,942.18
2017-06-28T03:07:18.251Z,942.16
2017-06-28T03:08:18.247Z,942.16
2017-06-28T03:09:18.242Z,942.15
2017-06-28T03:10:18.281Z,942.13
2017-06-28T03:11:18.229Z,942.12
2017-06-28T03:12:18.223Z,942.13
2017-06-28T03:13:18.236Z,942.12
2017-06-28T03:14:18.213Z,942.17
2017-06-28T03:15:18.206Z,942.13
2017-06-28T03:16:18.201Z,942.12
2017-06-28T03:17:18.199Z,942.14
2017-06-28T03:18:18.188Z,942.11
2017-06-28T03:19:18.183Z,942.11
2017-06-28T03:20:18.178Z,942.08
2017-06-28T03:21:18.172Z,942.05
2017-06-28T03:22:18.184Z,942.05
2017-06-28T03:23:18.161Z,942.02
2017-06-28T03:24:18.156Z,942.02
2017-06-28T03:25:18.167Z,942.01
2017-06-28T03:26:18.144Z,942.01
2017-06-28T03:27:18.140Z,942
2017-06-28T03:28:18.135Z,942.01
2017-06-28T03:29:18.129Z,941.98
2017-06-28T03:30:18.123Z,941.97
2017-06-28T03:31:18.118Z,941.96
2017-06-28T03:32:18.114Z,941.99
2017-06-28T03:33:18.107Z,941.96
2017-06-28T03:34:18.103Z,941.94
2017-06-28T03:35:18.097Z,941.94
2017-06-28T03:36:18.095Z,941.9
2017-06-28T03:37:18.087Z,941.9
2017-06-28T03:38:18.082Z,941.87
2017-06-28T03:39:18.078Z,941.88
2017-06-28T03:40:18.072Z,941.9
2017-06-28T03:41:18.068Z,941.9
2017-06-28T03:42:18.087Z,941.88
2017-06-28T03:43:18.072Z,941.91
2017-06-28T03:44:18.053Z,941.88
2017-06-28T03:45:18.050Z,941.93
2017-06-28T03:46:18.044Z,941.93
2017-06-28T03:47:18.038Z,941.93
2017-06-28T03:48:18.061Z,941.89
2017-06-28T03:49:18.029Z,941.87
2017-06-28T03:50:18.046Z,941.88
2017-06-28T03:51:18.018Z,941.87
2017-06-28T03:52:18.029Z,941.83
2017-06-28T03:53:18.054Z,941.82
2017-06-28T03:54:18.007Z,941.83
2017-06-28T03:55:18.286Z,941.79
2017-06-28T03:56:17.998Z,941.85
2017-06-28T03:57:18.178Z,941.83
2017-06-28T03:58:18.125Z,941.81
2017-06-28T03:59:18.003Z,941.79
2017-06-28T04:00:17.981Z,941.83
2017-06-28T04:01:17.993Z,941.85
2017-06-28T04:02:17.981Z,941.81
2017-06-28T04:03:17.966Z,941.85
2017-06-28T04:04:18.100Z,941.85
2017-06-28T04:05:18.081Z,941.84
2017-06-28T04:06:17.971Z,941.87
2017-06-28T04:07:17.949Z,941.88
2017-06-28T04:08:17.949Z,941.85
2017-06-28T04:09:17.938Z,941.86
2017-06-28T04:10:17.972Z,941.83
2017-06-28T04:11:18.196Z,941.8
2017-06-28T04:12:18.082Z,941.79
2017-06-28T04:13:17.925Z,941.77
2017-06-28T04:14:17.921Z,941.77
2017-06-28T04:15:17.933Z,941.79
2017-06-28T04:16:17.910Z,941.8
2017-06-28T04:17:17.906Z,941.8
2017-06-28T04:18:18.046Z,941.74
2017-06-28T04:19:18.055Z,941.75
2017-06-28T04:20:17.933Z,941.74
2017-06-28T04:21:17.930Z,941.75
2017-06-28T04:22:17.935Z,941.73
2017-06-28T04:23:17.930Z,941.72
2017-06-28T04:24:17.919Z,941.76
2017-06-28T04:25:17.893Z,941.73
2017-06-28T04:26:18.000Z,941.78
2017-06-28T04:27:17.864Z,941.75
2017-06-28T04:28:17.861Z,941.68
2017-06-28T04:29:17.856Z,941.68
2017-06-28T04:30:17.852Z,941.65
2017-06-28T04:31:17.848Z,941.63
2017-06-28T04:32:17.845Z,941.6
2017-06-28T04:33:17.841Z,941.61
2017-06-28T04:34:17.838Z,941.65
2017-06-28T04:35:17.833Z,941.62
2017-06-28T04:36:17.828Z,941.59
2017-06-28T04:37:17.824Z,941.62
2017-06-28T04:38:17.819Z,941.61
2017-06-28T04:39:17.818Z,941.54
2017-06-28T04:40:17.812Z,941.5
2017-06-28T04:41:17.809Z,941.51
2017-06-28T04:42:17.804Z,941.54
2017-06-28T04:43:17.803Z,941.49
2017-06-28T04:44:17.797Z,941.46
2017-06-28T04:45:17.794Z,941.44
2017-06-28T04:46:17.790Z,941.44
2017-06-28T04:47:17.785Z,941.43
2017-06-28T04:48:17.782Z,941.39
2017-06-28T04:49:17.789Z,941.41
2017-06-28T04:50:17.775Z,941.41
2017-06-28T04:51:17.771Z,941.39
2017-06-28T04:52:17.768Z,941.43
2017-06-28T04:53:17.763Z,941.41
2017-06-28T04:54:17.792Z,941.44
2017-06-28T04:55:17.756Z,941.41
2017-06-28T04:56:17.753Z,941.39
2017-06-28T04:57:17.749Z,941.36
2017-06-28T04:58:17.746Z,941.35
2017-06-28T04:59:17.743Z,941.37
2017-06-28T05:00:17.740Z,941.31
2017-06-28T05:01:17.735Z,941.32
2017-06-28T05:02:17.732Z,941.31
2017-06-28T05:03:17.730Z,941.29
2017-06-28T05:04:17.727Z,941.27
2017-06-28T05:05:17.722Z,941.27
2017-06-28T05:06:17.722Z,941.3
2017-06-28T05:07:17.717Z,941.25
2017-06-28T05:08:17.714Z,941.2
2017-06-28T05:09:17.712Z,941.18
2017-06-28T05:10:17.709Z,941.24
2017-06-28T05:11:17.706Z,941.19
2017-06-28T05:12:17.706Z,941.23
2017-06-28T05:13:17.703Z,941.18
2017-06-28T05:14:17.750Z,941.17
2017-06-28T05:15:17.696Z,941.16
2017-06-28T05:16:17.695Z,941.14
2017-06-28T05:17:17.692Z,941.14
2017-06-28T05:18:17.690Z,941.11
2017-06-28T05:19:17.688Z,941.14
2017-06-28T05:20:17.684Z,941.1
2017-06-28T05:21:17.683Z,941.11
2017-06-28T05:22:17.682Z,941.1
2017-06-28T05:23:17.678Z,941.04
2017-06-28T05:24:17.676Z,941
2017-06-28T05:25:17.674Z,940.99
2017-06-28T05:26:17.672Z,940.92
2017-06-28T05:27:17.670Z,940.94
2017-06-28T05:28:17.670Z,940.92
2017-06-28T05:29:17.668Z,940.95
2017-06-28T05:30:17.664Z,940.98
2017-06-28T05:31:17.663Z,941
2017-06-28T05:32:17.664Z,940.98
2017-06-28T05:33:17.660Z,941
2017-06-28T05:34:17.658Z,941.06
2017-06-28T05:35:17.657Z,941.03
2017-06-28T05:36:17.658Z,941.07
2017-06-28T05:37:17.658Z,941.05
2017-06-28T05:38:17.654Z,941.04
2017-06-28T05:39:17.652Z,941.05
2017-06-28T05:40:17.651Z,941.02
2017-06-28T05:41:17.649Z,941.05
2017-06-28T05:42:17.649Z,941.07
2017-06-28T05:43:17.662Z,941.06
2017-06-28T05:44:17.645Z,941.04
2017-06-28T05:45:17.645Z,941.07
2017-06-28T05:46:17.643Z,941.07
2017-06-28T05:47:17.645Z,941.09
2017-06-28T05:48:17.642Z,941.01
2017-06-28T05:49:17.642Z,941.06
2017-06-28T05:50:17.641Z,941.04
2017-06-28T05:51:17.639Z,941
2017-06-28T05:52:17.639Z,940.95
2017-06-28T05:53:17.639Z,941
2017-06-28T05:54:17.639Z,940.96
2017-06-28T05:55:17.638Z,940.98
2017-06-28T05:56:17.637Z,940.99
2017-06-28T05:57:17.637Z,941
2017-06-28T05:58:17.659Z,941.05
2017-06-28T05:59:17.636Z,941
2017-06-28T06:00:17.637Z,941
2017-06-28T06:01:17.638Z,940.98
2017-06-28T06:02:17.637Z,940.94
2017-06-28T06:03:17.637Z,940.93
2017-06-28T06:04:17.641Z,940.93
2017-06-28T06:05:17.639Z,940.91
2017-06-28T06:06:17.637Z,940.95
2017-06-28T06:07:17.637Z,940.98
2017-06-28T06:08:17.639Z,940.97
2017-06-28T06:09:17.639Z,940.99
2017-06-28T06:10:17.660Z,940.98
2017-06-28T06:11:17.638Z,940.97
2017-06-28T06:12:17.639Z,940.99
2017-06-28T06:13:17.640Z,940.96
2017-06-28T06:14:17.642Z,941.01
2017-06-28T06:15:17.641Z,940.95
2017-06-28T06:16:17.644Z,940.95
2017-06-28T06:17:17.641Z,940.92
2017-06-28T06:18:17.643Z,940.92
2017-06-28T06:19:17.644Z,940.9
2017-06-28T06:20:17.647Z,940.92
2017-06-28T06:21:17.647Z,940.88
2017-06-28T06:22:17.647Z,940.95
2017-06-28T06:23:17.649Z,940.95
2017-06-28T06:24:17.652Z,940.93
2017-06-28T06:25:17.651Z,940.88
2017-06-28T06:26:17.654Z,940.89
2017-06-28T06:27:17.653Z,940.86
2017-06-28T06:28:17.664Z,940.84
2017-06-28T06:29:17.657Z,940.84
2017-06-28T06:30:17.658Z,940.83
2017-06-28T06:31:17.660Z,940.83
2017-06-28T06:32:17.663Z,940.83
2017-06-28T06:33:17.662Z,940.8
2017-06-28T06:34:17.665Z,940.8
2017-06-28T06:35:17.667Z,940.74
2017-06-28T06:36:17.669Z,940.81
2017-06-28T06:37:17.670Z,940.82
2017-06-28T06:38:17.694Z,940.81
2017-06-28T06:39:17.674Z,940.86
2017-06-28T06:40:17.677Z,940.82
2017-06-28T06:41:17.693Z,940.83
2017-06-28T06:42:17.683Z,940.82
2017-06-28T06:43:17.682Z,940.85
2017-06-28T06:44:17.684Z,940.84
2017-06-28T06:45:17.686Z,940.93
2017-06-28T06:46:17.689Z,940.84
2017-06-28T06:47:17.690Z,940.86
2017-06-28T06:48:17.694Z,940.83
2017-06-28T06:49:17.697Z,940.85
2017-06-28T06:50:17.699Z,940.84
2017-06-28T06:51:17.752Z,940.87
2017-06-28T06:52:17.704Z,940.8
2017-06-28T06:53:17.707Z,940.82
2017-06-28T06:54:17.715Z,940.81
2017-06-28T06:55:17.713Z,940.81
2017-06-28T06:56:17.716Z,940.83
2017-06-28T06:57:17.754Z,940.85
2017-06-28T06:58:17.721Z,940.83
2017-06-28T06:59:17.726Z,940.85
2017-06-28T07:00:17.727Z,940.84
2017-06-28T07:01:17.730Z,940.79
2017-06-28T07:02:17.747Z,940.81
2017-06-28T07:03:17.734Z,940.79
2017-06-28T07:04:17.744Z,940.8
2017-06-28T07:05:17.741Z,940.74
2017-06-28T07:06:17.762Z,940.77
2017-06-28T07:07:17.763Z,940.76
2017-06-28T07:08:17.747Z,940.74
2017-06-28T07:09:17.750Z,940.75
2017-06-28T07:10:17.752Z,940.75
2017-06-28T07:11:17.755Z,940.79
2017-06-28T07:12:17.756Z,940.79
2017-06-28T07:13:17.760Z,940.78
2017-06-28T07:14:17.763Z,940.72
2017-06-28T07:15:17.766Z,940.68
2017-06-28T07:16:17.770Z,940.59
2017-06-28T07:17:17.772Z,940.64
2017-06-28T07:18:17.776Z,940.63
2017-06-28T07:19:17.780Z,940.7
2017-06-28T07:20:17.783Z,940.7
2017-06-28T07:21:17.786Z,940.6
2017-06-28T07:22:17.791Z,940.62
2017-06-28T07:23:17.796Z,940.72
2017-06-28T07:24:17.809Z,940.74
2017-06-28T07:25:17.815Z,940.7
2017-06-28T07:26:17.812Z,940.69
2017-06-28T07:27:17.817Z,940.73
2017-06-28T07:28:17.825Z,940.71
2017-06-28T07:29:17.829Z,940.72
2017-06-28T07:30:17.835Z,940.69
2017-06-28T07:31:17.887Z,940.72
2017-06-28T07:32:17.851Z,940.76
2017-06-28T07:33:17.858Z,940.72
2017-06-28T07:34:17.864Z,940.7
2017-06-28T07:35:17.873Z,940.73
2017-06-28T07:36:17.880Z,940.66
2017-06-28T07:37:17.889Z,940.6
2017-06-28T07:38:17.897Z,940.58
2017-06-28T07:39:17.953Z,940.51
2017-06-28T07:40:17.915Z,940.5
2017-06-28T07:41:17.922Z,940.53
2017-06-28T07:42:17.931Z,940.53
2017-06-28T07:43:17.942Z,940.52
2017-06-28T07:44:17.950Z,940.51
2017-06-28T07:45:17.959Z,940.48
2017-06-28T07:46:17.969Z,940.51
2017-06-28T07:47:17.977Z,940.4
2017-06-28T07:48:18.007Z,940.39
2017-06-28T07:49:17.998Z,940.36
2017-06-28T07:50:18.023Z,940.38
2017-06-28T07:51:18.033Z,940.41
2017-06-28T07:52:18.047Z,940.37
2017-06-28T07:53:18.052Z,940.4
2017-06-28T07:54:18.049Z,940.4
2017-06-28T07:55:18.050Z,940.4
2017-06-28T07:56:18.064Z,940.38
2017-06-28T07:57:18.069Z,940.39
2017-06-28T07:58:18.083Z,940.4
2017-06-28T07:59:18.085Z,940.46
2017-06-28T08:00:18.091Z,940.45
2017-06-28T08:01:18.099Z,940.45
2017-06-28T08:02:18.107Z,940.49
2017-06-28T08:03:18.114Z,940.5
2017-06-28T08:04:18.121Z,940.54
2017-06-28T08:05:18.131Z,940.57
2017-06-28T08:06:18.137Z,940.57
2017-06-28T08:07:18.142Z,940.56
2017-06-28T08:08:18.148Z,940.58
2017-06-28T08:09:18.156Z,940.6
2017-06-28T08:10:18.163Z,940.6
2017-06-28T08:11:18.167Z,940.63
2017-06-28T08:12:18.175Z,940.66
2017-06-28T08:13:18.182Z,940.66
2017-06-28T08:14:18.187Z,940.69
2017-06-28T08:15:18.191Z,940.71
2017-06-28T08:16:18.197Z,940.72
2017-06-28T08:17:18.202Z,940.73
2017-06-28T08:18:18.207Z,940.73
2017-06-28T08:19:18.212Z,940.82
2017-06-28T08:20:18.218Z,940.81
2017-06-28T08:21:18.222Z,940.78
2017-06-28T08:22:18.228Z,940.81
2017-06-28T08:23:18.233Z,940.82
2017-06-28T08:24:18.238Z,940.81
2017-06-28T08:25:18.241Z,940.84
2017-06-28T08:26:18.246Z,940.8
2017-06-28T08:27:18.259Z,940.85
2017-06-28T08:28:18.255Z,940.83
2017-06-28T08:29:18.258Z,940.86
2017-06-28T08:30:18.277Z,940.84
2017-06-28T08:31:18.284Z,940.85
2017-06-28T08:32:18.271Z,940.94
2017-06-28T08:33:18.274Z,940.99
2017-06-28T08:34:18.281Z,941.03
2017-06-28T08:35:18.283Z,941.05
2017-06-28T08:36:18.305Z,941.07
2017-06-28T08:37:18.290Z,941.09
2017-06-28T08:38:18.292Z,941.17
2017-06-28T08:39:18.296Z,941.11
2017-06-28T08:40:18.299Z,941.15
2017-06-28T08:41:18.301Z,941.12
2017-06-28T08:42:18.303Z,941.18
2017-06-28T08:43:18.307Z,941.22
2017-06-28T08:44:18.312Z,941.14
2017-06-28T08:45:18.314Z,941.12
2017-06-28T08:46:18.315Z,941.15
2017-06-28T08:47:18.317Z,941.11
2017-06-28T08:48:18.320Z,941.19
2017-06-28T08:49:18.323Z,941.21
2017-06-28T08:50:18.325Z,941.21
2017-06-28T08:51:18.326Z,941.19
2017-06-28T08:52:18.342Z,941.21
2017-06-28T08:53:18.332Z,941.27
2017-06-28T08:54:18.356Z,941.28
2017-06-28T08:55:18.335Z,941.29
2017-06-28T08:56:18.335Z,941.28
2017-06-28T08:57:18.337Z,941.3
2017-06-28T08:58:18.339Z,941.3
2017-06-28T08:59:18.340Z,941.29
2017-06-28T09:00:18.357Z,941.35
2017-06-28T09:01:18.344Z,941.31
2017-06-28T09:02:18.345Z,941.3
2017-06-28T09:03:18.346Z,941.25
2017-06-28T09:04:18.348Z,941.25
2017-06-28T09:05:18.349Z,941.27
2017-06-28T09:06:18.351Z,941.32
2017-06-28T09:07:18.351Z,941.36
2017-06-28T09:08:18.356Z,941.35
2017-06-28T09:09:18.353Z,941.39
2017-06-28T09:10:18.357Z,941.39
2017-06-28T09:11:18.357Z,941.36
2017-06-28T09:12:18.359Z,941.39
2017-06-28T09:13:18.367Z,941.4
2017-06-28T09:14:18.360Z,941.41
2017-06-28T09:15:18.363Z,941.47
2017-06-28T09:16:18.364Z,941.47
2017-06-28T09:17:18.365Z,941.48
2017-06-28T09:18:18.366Z,941.48
2017-06-28T09:19:18.368Z,941.51
2017-06-28T09:20:18.368Z,941.52
2017-06-28T09:21:18.369Z,941.54
2017-06-28T09:22:18.371Z,941.57
2017-06-28T09:23:18.373Z,941.6
2017-06-28T09:24:18.375Z,941.57
2017-06-28T09:25:18.376Z,941.6
2017-06-28T09:26:18.376Z,941.55
2017-06-28T09:27:18.376Z,941.59
2017-06-28T09:28:18.379Z,941.58
2017-06-28T09:29:18.379Z,941.62
2017-06-28T09:30:18.381Z,941.66
2017-06-28T09:31:18.381Z,941.61
2017-06-28T09:32:18.383Z,941.61
2017-06-28T09:33:18.383Z,941.64
2017-06-28T09:34:18.386Z,941.63
2017-06-28T09:35:18.385Z,941.58
2017-06-28T09:36:18.386Z,941.56
2017-06-28T09:37:18.388Z,941.54
2017-06-28T09:38:18.389Z,941.52
2017-06-28T09:39:18.389Z,941.52
2017-06-28T09:40:18.390Z,941.49
2017-06-28T09:41:18.391Z,941.5
2017-06-28T09:42:18.392Z,941.47
2017-06-28T09:43:18.413Z,941.44
2017-06-28T09:44:18.393Z,941.44
2017-06-28T09:45:18.393Z,941.47
2017-06-28T09:46:18.393Z,941.44
2017-06-28T09:47:18.394Z,941.41
2017-06-28T09:48:18.396Z,941.38
2017-06-28T09:49:18.395Z,941.36
2017-06-28T09:50:18.396Z,941.33
2017-06-28T09:51:18.397Z,941.29
2017-06-28T09:52:18.397Z,941.27
2017-06-28T09:53:18.399Z,941.26
2017-06-28T09:54:18.399Z,941.23
2017-06-28T09:55:18.399Z,941.19
2017-06-28T09:56:18.399Z,941.2
2017-06-28T09:57:18.400Z,941.19
2017-06-28T09:58:18.401Z,941.13
2017-06-28T09:59:18.402Z,941.1
2017-06-28T10:00:18.414Z,941.1
2017-06-28T10:01:18.402Z,941.07
2017-06-28T10:02:18.404Z,941.02
2017-06-28T10:03:18.403Z,940.98
2017-06-28T10:04:18.405Z,940.9
2017-06-28T10:05:18.403Z,940.9
2017-06-28T10:06:18.405Z,940.86
2017-06-28T10:07:18.406Z,940.88
2017-06-28T10:08:18.406Z,940.87
2017-06-28T10:09:18.407Z,940.8
2017-06-28T10:10:18.408Z,940.85
2017-06-28T10:11:18.408Z,940.77
2017-06-28T10:12:18.411Z,940.8
2017-06-28T10:13:18.412Z,940.69
2017-06-28T10:14:18.415Z,940.6
2017-06-28T10:15:18.414Z,940.57
2017-06-28T10:16:18.415Z,940.51
2017-06-28T10:17:18.417Z,940.46
2017-06-28T10:18:18.420Z,940.46
2017-06-28T10:19:18.420Z,940.43
2017-06-28T10:20:18.422Z,940.41
2017-06-28T10:21:18.425Z,940.35
2017-06-28T10:22:18.427Z,940.41
2017-06-28T10:23:18.429Z,940.41
2017-06-28T10:24:18.433Z,940.4
2017-06-28T10:25:18.435Z,940.33
2017-06-28T10:26:18.437Z,940.28
2017-06-28T10:27:18.441Z,940.27
2017-06-28T10:28:18.450Z,940.2
2017-06-28T10:29:18.446Z,940.23
2017-06-28T10:30:18.449Z,940.2
2017-06-28T10:31:18.452Z,940.22
2017-06-28T10:32:18.456Z,940.23
2017-06-28T10:33:18.460Z,940.19
2017-06-28T10:34:18.464Z,940.2
2017-06-28T10:35:18.469Z,940.18
2017-06-28T10:36:18.469Z,940.21
2017-06-28T10:37:18.472Z,940.2
2017-06-28T10:38:18.477Z,940.14
2017-06-28T10:39:18.480Z,940.13
2017-06-28T10:40:18.483Z,940.14
2017-06-28T10:41:18.488Z,940.13
2017-06-28T10:42:18.491Z,940.16
2017-06-28T10:43:18.495Z,940.18
2017-06-28T10:44:18.498Z,940.12
2017-06-28T10:45:18.502Z,940.06
2017-06-28T10:46:18.507Z,940.06
2017-06-28T10:47:18.511Z,940.01
2017-06-28T10:48:18.517Z,940.03
2017-06-28T10:49:18.518Z,940.05
2017-06-28T10:50:18.523Z,940.04
2017-06-28T10:51:18.526Z,940.05
2017-06-28T10:52:18.531Z,940.03
2017-06-28T10:53:18.536Z,940.06
2017-06-28T10:54:18.540Z,940.02
2017-06-28T10:55:18.542Z,940.01
2017-06-28T10:56:18.548Z,939.99
2017-06-28T10:57:18.552Z,939.96
2017-06-28T10:58:18.558Z,940.01
2017-06-28T10:59:18.560Z,940.04
2017-06-28T11:00:18.574Z,940.09
2017-06-28T11:01:18.569Z,940.17
2017-06-28T11:02:18.573Z,940.1
2017-06-28T11:03:18.577Z,940.12
2017-06-28T11:04:18.581Z,940.17
2017-06-28T11:05:18.604Z,940.17
2017-06-28T11:06:18.588Z,940.17
2017-06-28T11:07:18.592Z,940.16
2017-06-28T11:08:18.598Z,940.22
2017-06-28T11:09:18.601Z,940.19
2017-06-28T11:10:18.603Z,940.17
2017-06-28T11:11:18.607Z,940.16
2017-06-28T11:12:18.611Z,940.15
2017-06-28T11:13:18.615Z,940.23
2017-06-28T11:14:18.619Z,940.23
2017-06-28T11:15:18.620Z,940.23
2017-06-28T11:16:18.624Z,940.25
2017-06-28T11:17:18.627Z,940.29
2017-06-28T11:18:18.632Z,940.28
2017-06-28T11:19:18.636Z,940.29
2017-06-28T11:20:18.638Z,940.3
2017-06-28T11:21:18.640Z,940.32
2017-06-28T11:22:18.644Z,940.38
2017-06-28T11:23:18.649Z,940.39
2017-06-28T11:24:18.651Z,940.39
2017-06-28T11:25:18.657Z,940.41
2017-06-28T11:26:18.656Z,940.45
2017-06-28T11:27:18.660Z,940.44
2017-06-28T11:28:18.661Z,940.38
2017-06-28T11:29:18.666Z,940.4
2017-06-28T11:30:18.668Z,940.43
2017-06-28T11:31:18.672Z,940.45
2017-06-28T11:32:18.675Z,940.47
2017-06-28T11:33:18.679Z,940.44
2017-06-28T11:34:18.683Z,940.5
2017-06-28T11:35:18.685Z,940.53
2017-06-28T11:36:18.688Z,940.55
2017-06-28T11:37:18.692Z,940.57
2017-06-28T11:38:18.697Z,940.55
2017-06-28T11:39:18.699Z,940.52
2017-06-28T11:40:18.702Z,940.54
2017-06-28T11:41:18.706Z,940.58
2017-06-28T11:42:18.708Z,940.56
2017-06-28T11:43:18.716Z,940.52
2017-06-28T11:44:18.728Z,940.55
2017-06-28T11:45:18.721Z,940.52
2017-06-28T11:46:18.723Z,940.55
2017-06-28T11:47:18.727Z,940.54
2017-06-28T11:48:18.754Z,940.47
2017-06-28T11:49:18.735Z,940.54
2017-06-28T11:50:18.738Z,940.5
2017-06-28T11:51:18.743Z,940.54
2017-06-28T11:52:18.747Z,940.54
2017-06-28T11:53:18.750Z,940.54
2017-06-28T11:54:18.756Z,940.52
2017-06-28T11:55:18.759Z,940.51
2017-06-28T11:56:18.764Z,940.52
2017-06-28T11:57:18.767Z,940.48
2017-06-28T11:58:18.771Z,940.5
2017-06-28T11:59:18.774Z,940.53
2017-06-28T12:00:18.778Z,940.48
2017-06-28T12:01:18.782Z,940.47
2017-06-28T12:02:18.787Z,940.47
2017-06-28T12:03:18.789Z,940.45
2017-06-28T12:04:18.794Z,940.48
2017-06-28T12:05:18.797Z,940.54
2017-06-28T12:06:18.801Z,940.53
2017-06-28T12:07:18.805Z,940.44
2017-06-28T12:08:18.809Z,940.52
2017-06-28T12:09:18.811Z,940.55
2017-06-28T12:10:18.815Z,940.52
2017-06-28T12:11:18.833Z,940.56
2017-06-28T12:12:18.821Z,940.55
2017-06-28T12:13:18.826Z,940.54
2017-06-28T12:14:18.831Z,940.57
2017-06-28T12:15:18.831Z,940.54
2017-06-28T12:16:18.835Z,940.53
2017-06-28T12:17:18.839Z,940.52
2017-06-28T12:18:18.843Z,940.47
2017-06-28T12:19:18.847Z,940.51
2017-06-28T12:20:18.854Z,940.47
2017-06-28T12:21:18.852Z,940.49
2017-06-28T12:22:18.856Z,940.43
2017-06-28T12:23:18.860Z,940.44
2017-06-28T12:24:18.866Z,940.39
2017-06-28T12:25:18.866Z,940.41
2017-06-28T12:26:18.869Z,940.41
2017-06-28T12:27:18.873Z,940.4
2017-06-28T12:28:18.878Z,940.33
2017-06-28T12:29:18.880Z,940.33
2017-06-28T12:30:18.883Z,940.28
2017-06-28T12:31:18.887Z,940.25